Dienstweiler (461 m) : 20.02.2018
Datum Zeit
(MEZ)
Temp.
(2 m)
Temp.
(20 cm)
Luftfeuchte Blattnässe Nieder-
schlag
Wind Zeit
(MEZ)
[°C] [°C] [%] [%] [mm] [m/s]
20.02.2018 23:55 -1.5 -1.8 93 23 0.0 1.5 23:55
  23:50 -1.4 -1.8 94 23 0.0 1.6 23:50
  23:45 -1.4 -1.8 94 23 0.0 1.2 23:45
  23:40 -1.5 -1.9 95 24 0.0 0.8 23:40
  23:35 -1.5 -2.0 94 24 0.0 1.1 23:35
  23:30 -1.5 -2.1 94 24 0.0 1.3 23:30
  23:25 -1.4 -2.1 93 24 0.0 1.1 23:25
  23:20 -1.4 -2.0 94 24 0.0 1.0 23:20
  23:15 -1.4 -1.9 94 24 0.0 1.2 23:15
  23:10 -1.4 -2.0 93 24 0.0 1.1 23:10
  23:05 -1.3 -1.9 93 23 0.0 1.5 23:05
  23:00 -1.3 -1.9 93 23 0.0 1.1 23:00
  22:55 -1.3 -1.8 92 23 0.0 1.4 22:55
  22:50 -1.2 -1.9 92 23 0.0 1.4 22:50
  22:45 -1.2 -1.9 93 23 0.0 1.1 22:45
  22:40 -1.2 -1.9 94 23 0.0 1.2 22:40
  22:35 -1.3 -1.9 94 24 0.0 0.9 22:35
  22:30 -1.3 -1.9 94 24 0.0 1.2 22:30
  22:25 -1.3 -2.0 94 25 0.0 1.0 22:25
  22:20 -1.2 -2.0 94 24 0.0 1.2 22:20
  22:15 -1.2 -1.9 93 24 0.0 1.3 22:15
  22:10 -1.1 -1.7 93 24 0.0 1.7 22:10
  22:05 -1.1 -1.7 94 24 0.0 1.2 22:05
  22:00 -1.0 -1.4 94 24 0.0 1.4 22:00
20.02.2018 21:55 -0.9 -1.2 93 23 0.0 1.4 21:55
  21:50 -0.9 -1.1 93 22 0.0 1.8 21:50
  21:45 -0.9 -1.0 93 22 0.0 1.7 21:45
  21:40 -0.8 -0.9 92 22 0.0 2.2 21:40
  21:35 -0.7 -0.9 92 21 0.0 1.9 21:35
  21:30 -0.7 -0.8 92 22 0.0 1.7 21:30
  21:25 -0.7 -0.8 92 22 0.0 1.7 21:25
  21:20 -0.6 -0.8 92 22 0.0 2.1 21:20
  21:15 -0.6 -0.7 93 22 0.0 2.1 21:15
  21:10 -0.6 -0.7 93 22 0.0 1.8 21:10
  21:05 -0.5 -0.7 93 22 0.0 2.0 21:05
  21:00 -0.5 -0.6 92 22 0.0 2.2 21:00
  20:55 -0.4 -0.6 93 22 0.0 1.8 20:55
  20:50 -0.4 -0.6 93 22 0.0 1.8 20:50
  20:45 -0.4 -0.6 93 22 0.0 2.3 20:45
  20:40 -0.4 -0.6 94 22 0.0 2.1 20:40
  20:35 -0.5 -0.7 95 23 0.0 1.2 20:35
  20:30 -0.5 -0.8 95 23 0.0 1.1 20:30
  20:25 -0.6 -1.1 95 24 0.0 1.4 20:25
  20:20 -0.5 -1.0 93 24 0.0 1.7 20:20
  20:15 -0.3 -0.8 92 23 0.0 2.2 20:15
  20:10 -0.2 -0.7 90 22 0.0 2.2 20:10
  20:05 -0.2 -0.6 89 21 0.0 1.2 20:05
  20:00 0.0 -0.4 88 20 0.0 1.8 20:00
20.02.2018 19:55 0.0 -0.4 88 20 0.0 1.6 19:55
  19:50 0.0 -0.5 88 20 0.0 1.2 19:50
  19:45 0.1 -0.5 88 20 0.0 1.3 19:45
  19:40 0.1 -0.5 88 20 0.0 0.9 19:40
  19:35 0.1 -0.5 89 21 0.0 0.6 19:35
  19:30 0.0 -0.7 89 21 0.0 0.2 19:30
  19:25 -0.1 -0.8 89 21 0.0 0.1 19:25
  19:20 -0.2 -0.8 89 22 0.0 0.0 19:20
  19:15 -0.1 -0.8 88 21 0.0 0.2 19:15
  19:10 -0.1 -0.7 88 21 0.0 0.4 19:10
  19:05 -0.1 -0.9 89 21 0.0 0.2 19:05
  19:00 -0.1 -0.9 88 21 0.0 0.2 19:00
  18:55 -0.1 -1.1 87 21 0.0 0.5 18:55
  18:50 0.0 -1.3 86 21 0.0 0.3 18:50
  18:45 0.0 -1.3 87 21 0.0 0.3 18:45
  18:40 0.1 -1.3 86 21 0.0 0.5 18:40
  18:35 0.1 -1.2 86 21 0.0 0.7 18:35
  18:30 0.2 -1.2 85 21 0.0 0.5 18:30
  18:25 0.5 -0.9 84 20 0.0 0.9 18:25
  18:20 0.5 -0.8 85 20 0.0 0.7 18:20
  18:15 0.5 -0.9 85 20 0.0 0.3 18:15
  18:10 0.5 -0.6 85 20 0.0 0.5 18:10
  18:05 0.6 -0.6 85 19 0.0 0.5 18:05
  18:00 0.2 -0.9 86 21 0.0 0.6 18:00
20.02.2018 17:55 0.2 -1.0 84 20 0.0 0.4 17:55
  17:50 0.3 -0.8 83 18 0.0 0.2 17:50
  17:45 0.5 -0.5 82 17 0.0 0.2 17:45
  17:40 0.5 -0.2 81 16 0.0 0.3 17:40
  17:35 0.7 -0.1 80 15 0.0 0.5 17:35
  17:30 0.8 0.4 80 14 0.0 0.7 17:30
  17:25 0.8 0.4 79 14 0.0 0.5 17:25
  17:20 0.9 0.6 79 14 0.0 0.2 17:20
  17:15 1.0 0.7 78 14 0.0 0.3 17:15
  17:10 1.1 0.9 77 13 0.0 0.4 17:10
  17:05 1.3 1.0 75 13 0.0 0.5 17:05
  17:00 1.6 1.4 72 12 0.0 0.5 17:00
  16:55 1.6 1.6 71 12 0.0 0.2 16:55
  16:50 1.7 1.8 71 11 0.0 0.2 16:50
  16:45 1.7 1.8 73 11 0.0 0.3 16:45
  16:40 1.6 1.7 74 12 0.0 0.4 16:40
  16:35 1.5 1.5 76 12 0.0 0.4 16:35
  16:30 1.1 0.7 75 14 0.0 0.4 16:30
  16:25 1.4 1.3 75 13 0.0 0.4 16:25
  16:20 1.6 2.1 76 12 0.0 0.9 16:20
  16:15 1.3 1.4 79 13 0.0 0.5 16:15
  16:10 0.8 0.4 79 15 0.0 0.8 16:10
  16:05 0.9 0.5 79 15 0.0 1.1 16:05
  16:00 0.9 0.3 79 15 0.0 0.6 16:00
20.02.2018 15:55 0.8 0.3 78 15 0.0 0.5 15:55
  15:50 0.9 0.5 77 14 0.0 0.7 15:50
  15:45 1.1 0.7 76 14 0.0 0.8 15:45
  15:40 1.1 0.8 77 14 0.0 1.1 15:40
  15:35 1.2 1.0 75 13 0.0 1.3 15:35
  15:30 1.3 1.3 73 13 0.0 1.9 15:30
  15:25 1.5 1.6 72 12 0.0 1.7 15:25
  15:20 1.6 2.1 71 12 0.0 1.3 15:20
  15:15 1.8 2.5 73 13 0.0 0.7 15:15
  15:10 1.8 2.6 72 12 0.0 1.2 15:10
  15:05 1.9 2.9 70 12 0.0 1.6 15:05
  15:00 1.9 3.1 70 11 0.0 1.7 15:00
  14:55 1.8 3.1 69 11 0.0 1.8 14:55
  14:50 2.0 3.4 71 12 0.0 1.2 14:50
  14:45 2.0 3.4 72 12 0.0 1.2 14:45
  14:40 1.8 3.4 70 12 0.0 0.9 14:40
  14:35 1.8 3.1 70 11 0.0 0.1 14:35
  14:30 1.8 3.6 67 11 0.0 0.8 14:30
  14:25 1.9 4.5 66 11 0.0 0.6 14:25
  14:20 1.9 5.6 65 10 0.0 1.0 14:20
  14:15 2.0 5.8 67 12 0.0 1.8 14:15
  14:10 2.3 6.2 67 11 0.0 1.4 14:10
  14:05 2.3 5.7 67 12 0.0 0.8 14:05
  14:00 2.4 4.9 69 12 0.0 0.2 14:00
20.02.2018 13:55 1.6 4.7 70 11 0.0 0.4 13:55
  13:50 1.4 3.7 70 13 0.0 1.3 13:50
  13:45 1.5 3.0 70 13 0.0 0.7 13:45
  13:40 1.8 3.4 69 12 0.0 0.1 13:40
  13:35 2.2 4.9 71 13 0.0 0.9 13:35
  13:30 2.0 5.3 73 13 0.0 1.2 13:30
  13:25 1.5 4.9 74 14 0.0 0.8 13:25
  13:20 1.1 3.7 72 14 0.0 0.9 13:20
  13:15 1.4 4.0 71 14 0.0 0.9 13:15
  13:10 1.7 4.7 70 14 0.0 1.1 13:10
  13:05 1.6 4.5 71 13 0.0 0.2 13:05
  13:00 1.2 3.6 71 14 0.0 0.7 13:00
  12:55 0.9 4.4 70 14 0.0 1.6 12:55
  12:50 1.1 4.7 72 14 0.0 1.0 12:50
  12:45 1.0 5.2 72 14 0.0 1.1 12:45
  12:40 1.1 4.9 73 15 0.0 1.3 12:40
  12:35 1.3 5.3 75 16 0.0 1.8 12:35
  12:30 0.7 4.8 75 16 0.0 1.4 12:30
  12:25 0.5 4.6 76 16 0.0 2.2 12:25
  12:20 0.5 4.0 76 17 0.0 1.9 12:20
  12:15 0.4 2.6 76 17 0.0 1.7 12:15
  12:10 0.4 3.6 75 17 0.0 2.4 12:10
  12:05 1.0 4.5 78 18 0.0 2.2 12:05
  12:00 0.8 3.7 77 18 0.0 1.9 12:00
20.02.2018 11:55 1.3 4.6 78 17 0.0 2.1 11:55
  11:50 1.1 4.2 76 17 0.0 1.6 11:50
  11:45 1.2 4.3 77 18 0.0 1.3 11:45
  11:40 0.6 3.8 79 18 0.0 0.5 11:40
  11:35 -0.1 3.0 80 20 0.0 0.2 11:35
  11:30 -0.3 2.4 81 22 0.0 0.3 11:30
  11:25 -0.4 2.6 82 26 0.0 1.3 11:25
  11:20 0.1 2.8 84 27 0.0 0.8 11:20
  11:15 -0.4 2.1 86 27 0.0 0.3 11:15
  11:10 -0.6 2.1 85 29 0.0 0.7 11:10
  11:05 -0.7 2.3 86 29 0.0 1.1 11:05
  11:00 -0.6 2.5 87 31 0.0 1.4 11:00
  10:55 -0.7 1.3 91 32 0.0 0.4 10:55
  10:50 -1.0 0.2 95 35 0.0 0.1 10:50
  10:45 -1.2 -0.1 95 36 0.0 0.4 10:45
  10:40 -1.5 -0.5 95 36 0.0 0.1 10:40
  10:35 -1.7 -0.6 95 36 0.0 0.2 10:35
  10:30 -1.6 -0.4 96 39 0.0 0.3 10:30
  10:25 -1.3 -0.1 96 42 0.0 0.1 10:25
  10:20 -1.2 0.4 93 39 0.0 0.1 10:20
  10:15 -1.6 0.0 91 37 0.0 0.2 10:15
  10:10 -1.5 1.0 94 38 0.0 0.2 10:10
  10:05 -1.7 0.5 95 38 0.0 0.1 10:05
  10:00 -2.0 -0.4 97 38 0.0 0.0 10:00
20.02.2018 09:55 -2.0 -0.2 100 38 0.0 0.0 09:55
  09:50 -2.2 -1.1 100 41 0.0 0.1 09:50
  09:45 -2.2 -1.1 100 42 0.0 0.1 09:45
  09:40 -2.2 -1.3 100 44 0.0 0.1 09:40
  09:35 -2.3 -1.6 100 42 0.0 0.0 09:35
  09:30 -2.6 -1.7 100 45 0.0 0.2 09:30
  09:25 -2.6 -1.9 100 52 0.0 0.1 09:25
  09:20 -3.1 -2.4 100 58 0.0 0.0 09:20
  09:15 -3.3 -2.5 100 61 0.0 0.0 09:15
  09:10 -3.3 -2.6 100 64 0.0 0.1 09:10
  09:05 -3.2 -2.6 100 61 0.0 0.2 09:05
  09:00 -3.4 -2.8 100 65 0.0 0.0 09:00
  08:55 -3.3 -2.7 100 61 0.0 0.0 08:55
  08:50 -3.5 -3.0 100 66 0.0 0.0 08:50
  08:45 -3.2 -2.9 100 64 0.0 0.1 08:45
  08:40 -3.1 -2.8 100 57 0.0 0.4 08:40
  08:35 -3.4 -3.1 100 62 0.0 0.0 08:35
  08:30 -3.5 -3.2 100 70 0.0 0.0 08:30
  08:25 -3.3 -3.1 100 62 0.0 0.0 08:25
  08:20 -3.3 -3.1 100 61 0.0 0.0 08:20
  08:15 -3.3 -3.1 100 61 0.0 0.4 08:15
  08:10 -3.3 -3.1 100 62 0.0 0.7 08:10
  08:05 -3.3 -3.2 100 67 0.0 0.1 08:05
  08:00 -3.3 -3.2 100 64 0.0 0.6 08:00
20.02.2018 07:55 -3.2 -3.2 100 65 0.0 1.2 07:55
  07:50 -3.3 -3.4 100 81 0.0 1.2 07:50
  07:45 -3.8 -3.9 100 100 0.0 0.1 07:45
  07:40 -4.1 -4.1 100 100 0.0 0.0 07:40
  07:35 -4.1 -4.2 100 100 0.0 0.0 07:35
  07:30 -4.2 -4.4 100 100 0.0 0.0 07:30
  07:25 -4.2 -4.3 100 100 0.0 0.0 07:25
  07:20 -3.3 -3.7 100 89 0.0 0.6 07:20
  07:15 -3.1 -3.6 100 90 0.0 1.1 07:15
  07:10 -3.3 -3.9 100 100 0.0 1.0 07:10
  07:05 -3.3 -3.9 100 100 0.0 0.8 07:05
  07:00 -3.4 -4.0 100 100 0.0 0.5 07:00
  06:55 -3.2 -3.9 100 100 0.0 0.6 06:55
  06:50 -3.3 -3.8 100 100 0.0 1.0 06:50
  06:45 -3.2 -3.8 100 100 0.0 1.2 06:45
  06:40 -3.2 -3.8 100 100 0.0 1.1 06:40
  06:35 -3.1 -3.7 100 99 0.0 1.0 06:35
  06:30 -3.0 -3.7 100 91 0.0 0.7 06:30
  06:25 -3.0 -3.7 100 98 0.0 0.6 06:25
  06:20 -3.1 -3.7 100 87 0.0 0.4 06:20
  06:15 -2.9 -3.5 100 76 0.0 0.9 06:15
  06:10 -2.8 -3.4 100 63 0.0 1.0 06:10
  06:05 -2.6 -3.3 100 55 0.0 1.1 06:05
  06:00 -2.7 -3.3 100 60 0.0 1.5 06:00
20.02.2018 05:55 -2.9 -3.5 100 63 0.0 1.0 05:55
  05:50 -2.8 -3.5 100 64 0.0 1.3 05:50
  05:45 -2.9 -3.6 100 77 0.0 0.9 05:45
  05:40 -2.9 -3.7 100 95 0.0 0.8 05:40
  05:35 -3.0 -3.8 100 100 0.0 0.4 05:35
  05:30 -3.1 -3.6 100 100 0.0 0.9 05:30
  05:25 -3.3 -3.7 100 100 0.0 0.3 05:25
  05:20 -3.2 -3.5 100 100 0.0 0.3 05:20
  05:15 -3.0 -3.3 100 100 0.0 0.7 05:15
  05:10 -2.9 -3.1 100 100 0.0 0.6 05:10
  05:05 -2.9 -3.1 100 100 0.0 0.2 05:05
  05:00 -2.9 -3.0 100 100 0.0 0.3 05:00
  04:55 -2.8 -2.8 100 100 0.0 0.6 04:55
  04:50 -2.7 -2.7 100 100 0.0 0.6 04:50
  04:45 -2.9 -2.9 100 100 0.0 0.3 04:45
  04:40 -3.1 -3.1 100 100 0.0 0.1 04:40
  04:35 -2.8 -2.8 100 99 0.0 0.5 04:35
  04:30 -2.8 -2.8 100 100 0.0 0.7 04:30
  04:25 -2.8 -2.9 100 100 0.0 0.7 04:25
  04:20 -2.8 -3.0 100 100 0.0 0.7 04:20
  04:15 -2.6 -3.0 100 100 0.0 0.4 04:15
  04:10 -2.8 -3.2 100 100 0.0 0.1 04:10
  04:05 -2.8 -3.3 100 100 0.0 0.1 04:05
  04:00 -2.8 -3.3 100 100 0.0 0.0 04:00
20.02.2018 03:55 -2.7 -3.1 100 100 0.0 0.3 03:55
  03:50 -2.7 -3.1 100 100 0.0 0.4 03:50
  03:45 -2.9 -3.3 100 100 0.0 0.3 03:45
  03:40 -3.1 -3.7 100 100 0.0 0.0 03:40
  03:35 -3.0 -3.5 100 100 0.0 0.1 03:35
  03:30 -2.8 -3.4 100 100 0.0 0.3 03:30
  03:25 -2.7 -3.4 100 100 0.0 0.5 03:25
  03:20 -2.7 -3.5 100 100 0.0 0.5 03:20
  03:15 -2.6 -3.4 100 100 0.0 0.4 03:15
  03:10 -2.7 -3.4 100 100 0.0 0.3 03:10
  03:05 -2.6 -3.5 100 100 0.0 0.4 03:05
  03:00 -2.7 -3.4 100 100 0.0 0.3 03:00
  02:55 -2.8 -3.5 100 100 0.0 0.2 02:55
  02:50 -2.7 -3.6 100 100 0.0 0.1 02:50
  02:45 -2.6 -3.5 100 100 0.0 0.2 02:45
  02:40 -2.5 -3.4 100 100 0.0 0.1 02:40
  02:35 -2.5 -3.3 100 100 0.0 0.3 02:35
  02:30 -2.5 -3.4 100 100 0.0 0.1 02:30
  02:25 -2.4 -3.3 100 100 0.0 0.0 02:25
  02:20 -2.3 -3.2 100 99 0.0 0.0 02:20
  02:15 -2.2 -2.9 100 89 0.0 0.1 02:15
  02:10 -2.0 -2.6 100 80 0.0 0.2 02:10
  02:05 -2.0 -2.2 100 57 0.0 0.3 02:05
  02:00 -1.9 -2.2 100 54 0.0 0.3 02:00
20.02.2018 01:55 -2.0 -2.2 100 57 0.0 0.2 01:55
  01:50 -2.0 -2.2 100 60 0.0 0.1 01:50
  01:45 -2.0 -2.2 100 57 0.0 0.2 01:45
  01:40 -2.0 -2.3 100 61 0.0 0.0 01:40
  01:35 -2.0 -2.3 100 63 0.0 0.0 01:35
  01:30 -2.0 -2.2 100 61 0.0 0.0 01:30
  01:25 -2.0 -2.3 100 61 0.0 0.0 01:25
  01:20 -2.0 -2.4 100 69 0.0 0.0 01:20
  01:15 -2.1 -2.5 100 92 0.0 0.0 01:15
  01:10 -2.1 -2.5 100 100 0.0 0.0 01:10
  01:05 -2.1 -2.5 100 100 0.0 0.0 01:05
  01:00 -2.1 -2.5 100 100 0.0 0.0 01:00
  00:55 -2.1 -2.4 100 100 0.0 0.0 00:55
  00:50 -1.9 -2.3 100 95 0.0 0.0 00:50
  00:45 -1.8 -2.1 100 65 0.0 0.0 00:45
  00:40 -1.8 -1.9 100 56 0.0 0.0 00:40
  00:35 -1.8 -1.8 100 54 0.0 0.0 00:35
  00:30 -1.7 -1.8 100 49 0.0 0.0 00:30
  00:25 -1.7 -1.8 100 46 0.0 0.0 00:25
  00:20 -1.6 -1.8 100 46 0.0 0.0 00:20
  00:15 -1.7 -1.7 100 46 0.0 0.0 00:15
  00:10 -1.6 -1.7 100 45 0.0 0.0 00:10
  00:05 -1.6 -1.7 100 45 0.0 0.0 00:05
  00:00 -1.6 -1.7 100 43 0.0 0.0 00:00
    Temp.
(2 m)
Temp.
(20 cm)
Luftfeuchte Blattnässe Nieder-
schlag
Wind  
[°C] [°C] [%] [%] [mm] [m/s]
 
  Ø -1.0 -0.7 90 45 - 0.7 Ø
  Min. -4.2 -4.4 - - - - Min.
  Max. 2.4 6.2 - - - - Max.
  - - - - 0.0 -
Quelle: Agrarmeteorologie Rheinland-Pfalz,
alle Angaben ohne Gewähr!
Zuletzt geändert: 21.02.18 - 00:19 Uhr